createdAt,value
2018-03-31T00:01:35.162Z,64.07
2018-03-31T00:04:02.990Z,63.96
2018-03-31T00:06:30.776Z,63.87
2018-03-31T00:08:58.616Z,63.88
2018-03-31T00:11:26.399Z,63.67
2018-03-31T00:13:54.227Z,63.85
2018-03-31T00:16:22.014Z,63.84
2018-03-31T00:18:50.484Z,63.39
2018-03-31T00:21:18.315Z,63.22
2018-03-31T00:23:46.115Z,63.23
2018-03-31T00:26:13.934Z,62.86
2018-03-31T00:28:41.742Z,62.80
2018-03-31T00:31:09.567Z,62.48
2018-03-31T00:33:37.367Z,62.74
2018-03-31T00:36:05.191Z,62.79
2018-03-31T00:38:32.985Z,62.81
2018-03-31T00:41:00.810Z,62.62
2018-03-31T00:43:28.612Z,62.63
2018-03-31T00:45:56.436Z,62.64
2018-03-31T00:48:24.237Z,62.74
2018-03-31T00:50:52.061Z,62.83
2018-03-31T00:53:20.118Z,63.14
2018-03-31T00:55:47.942Z,63.42
2018-03-31T00:58:15.735Z,63.79
2018-03-31T01:00:43.554Z,64.47
2018-03-31T01:03:11.355Z,65.27
2018-03-31T01:05:39.168Z,65.58
2018-03-31T01:08:06.963Z,65.71
2018-03-31T01:10:35.126Z,65.99
2018-03-31T01:13:02.946Z,65.75
2018-03-31T01:15:30.758Z,65.57
2018-03-31T01:17:58.567Z,65.33
2018-03-31T01:20:26.380Z,65.35
2018-03-31T01:22:54.170Z,65.19
2018-03-31T01:25:21.990Z,65.29
2018-03-31T01:27:50.023Z,64.84
2018-03-31T01:30:17.843Z,64.61
2018-03-31T01:32:45.634Z,64.80
2018-03-31T01:35:13.458Z,64.52
2018-03-31T01:37:41.246Z,64.23
2018-03-31T01:40:09.070Z,64.38
2018-03-31T01:42:36.864Z,64.59
2018-03-31T01:45:05.099Z,64.63
2018-03-31T01:47:34.934Z,64.76
2018-03-31T01:50:02.754Z,64.80
2018-03-31T01:52:30.551Z,64.67
2018-03-31T01:54:58.378Z,64.58
2018-03-31T01:57:26.201Z,64.83
2018-03-31T01:59:53.990Z,64.70
2018-03-31T02:02:21.804Z,64.73
2018-03-31T02:04:49.722Z,64.47
2018-03-31T02:07:17.534Z,64.40
2018-03-31T02:09:45.335Z,64.63
2018-03-31T02:12:13.151Z,64.83
2018-03-31T02:14:40.942Z,64.79
2018-03-31T02:17:08.760Z,65.12
2018-03-31T02:19:36.559Z,64.92
2018-03-31T02:22:04.374Z,64.92
2018-03-31T02:24:32.162Z,65.19
2018-03-31T02:26:59.986Z,65.19
2018-03-31T02:29:27.782Z,65.22
2018-03-31T02:31:55.612Z,65.34
2018-03-31T02:34:23.399Z,65.39
2018-03-31T02:36:51.209Z,65.18
2018-03-31T02:39:19.004Z,65.33
2018-03-31T02:41:46.815Z,65.61
2018-03-31T02:44:14.608Z,65.55
2018-03-31T02:46:42.422Z,65.57
2018-03-31T02:49:10.215Z,65.48
2018-03-31T02:51:38.032Z,65.49
2018-03-31T02:54:05.822Z,66.01
2018-03-31T02:56:33.630Z,66.48
2018-03-31T02:59:01.431Z,66.47
2018-03-31T03:01:29.235Z,66.57
2018-03-31T03:03:57.031Z,66.49
2018-03-31T03:06:24.850Z,66.74
2018-03-31T03:08:52.625Z,67.80
2018-03-31T03:11:20.429Z,67.93
2018-03-31T03:13:48.219Z,68.32
2018-03-31T03:16:15.746Z,68.62
2018-03-31T03:18:43.246Z,68.68
2018-03-31T03:21:10.774Z,68.89
2018-03-31T03:23:38.286Z,69.07
2018-03-31T03:26:05.811Z,69.15
2018-03-31T03:28:33.313Z,69.28
2018-03-31T03:31:00.842Z,69.34
2018-03-31T03:33:28.347Z,69.46
2018-03-31T03:35:55.883Z,69.77
2018-03-31T03:38:23.394Z,70.14
2018-03-31T03:40:50.910Z,70.74
2018-03-31T03:43:18.433Z,70.96
2018-03-31T03:45:45.950Z,71.16
2018-03-31T03:48:13.482Z,71.41
2018-03-31T03:50:40.990Z,72.07
2018-03-31T03:53:08.523Z,72.07
2018-03-31T03:55:36.038Z,72.65
2018-03-31T03:58:03.566Z,73.40
2018-03-31T04:00:31.150Z,73.51
2018-03-31T04:02:58.665Z,73.29
2018-03-31T04:05:26.174Z,73.46
2018-03-31T04:07:53.706Z,73.45
2018-03-31T04:10:21.231Z,73.84
2018-03-31T04:12:48.763Z,73.92
2018-03-31T04:15:16.283Z,74.33
2018-03-31T04:17:43.818Z,74.41
2018-03-31T04:20:11.332Z,74.63
2018-03-31T04:22:38.862Z,74.74
2018-03-31T04:25:06.370Z,74.74
2018-03-31T04:27:33.894Z,74.43
2018-03-31T04:30:01.415Z,74.43
2018-03-31T04:32:28.950Z,74.75
2018-03-31T04:34:56.462Z,74.72
2018-03-31T04:37:24.006Z,74.86
2018-03-31T04:39:51.515Z,74.81
2018-03-31T04:42:19.053Z,74.99
2018-03-31T04:44:46.583Z,74.94
2018-03-31T04:47:14.102Z,74.88
2018-03-31T04:49:41.623Z,75.22
2018-03-31T04:52:09.157Z,75.37
2018-03-31T04:54:36.667Z,75.43
2018-03-31T04:57:04.214Z,75.55
2018-03-31T04:59:31.720Z,75.70
2018-03-31T05:01:59.254Z,75.98
2018-03-31T05:04:26.762Z,76.14
2018-03-31T05:06:54.298Z,76.03
2018-03-31T05:09:21.817Z,76.12
2018-03-31T05:11:49.341Z,76.11
2018-03-31T05:14:16.852Z,76.37
2018-03-31T05:16:44.378Z,76.54
2018-03-31T05:19:11.917Z,76.97
2018-03-31T05:21:39.419Z,77.13
2018-03-31T05:24:06.955Z,77.22
2018-03-31T05:26:34.502Z,77.39
2018-03-31T05:29:02.052Z,77.08
2018-03-31T05:31:29.557Z,76.94
2018-03-31T05:33:57.091Z,76.90
2018-03-31T05:36:24.616Z,76.82
2018-03-31T05:38:52.155Z,77.07
2018-03-31T05:41:19.674Z,76.72
2018-03-31T05:43:47.206Z,76.82
2018-03-31T05:46:14.722Z,76.61
2018-03-31T05:48:42.257Z,76.40
2018-03-31T05:51:09.771Z,76.43
2018-03-31T05:53:37.305Z,76.44
2018-03-31T05:56:04.811Z,76.40
2018-03-31T05:58:32.339Z,76.38
2018-03-31T06:00:59.843Z,76.53
2018-03-31T06:03:27.375Z,76.72
2018-03-31T06:05:54.882Z,77.06
2018-03-31T06:08:22.425Z,76.91
2018-03-31T06:10:49.936Z,77.07
2018-03-31T06:13:17.469Z,77.36
2018-03-31T06:15:44.979Z,77.81
2018-03-31T06:18:12.509Z,77.34
2018-03-31T06:20:40.031Z,77.70
2018-03-31T06:23:07.561Z,78.07
2018-03-31T06:25:35.070Z,78.31
2018-03-31T06:28:02.766Z,78.57
2018-03-31T06:30:30.510Z,78.79
2018-03-31T06:32:58.098Z,79.05
2018-03-31T06:35:25.610Z,79.36
2018-03-31T06:37:53.143Z,79.50
2018-03-31T06:40:20.645Z,79.60
2018-03-31T06:42:48.179Z,80.08
2018-03-31T06:45:15.691Z,80.12
2018-03-31T06:47:43.214Z,79.86
2018-03-31T06:50:10.802Z,80.01
2018-03-31T06:52:38.489Z,80.07
2018-03-31T06:55:06.099Z,80.14
2018-03-31T06:57:33.612Z,79.95
2018-03-31T07:00:01.142Z,80.26
2018-03-31T07:02:28.650Z,80.45
2018-03-31T07:04:56.186Z,80.73
2018-03-31T07:07:23.689Z,80.72
2018-03-31T07:09:51.222Z,80.63
2018-03-31T07:12:18.729Z,80.68
2018-03-31T07:14:46.252Z,80.78
2018-03-31T07:17:13.758Z,81.00
2018-03-31T07:19:41.286Z,80.99
2018-03-31T07:22:08.790Z,81.14
2018-03-31T07:24:36.314Z,81.12
2018-03-31T07:27:03.823Z,81.03
2018-03-31T07:29:31.346Z,81.10
2018-03-31T07:31:58.854Z,81.21
2018-03-31T07:34:26.392Z,81.38
2018-03-31T07:36:53.895Z,81.35
2018-03-31T07:39:21.426Z,81.52
2018-03-31T07:41:48.931Z,81.54
2018-03-31T07:44:16.458Z,81.52
2018-03-31T07:46:43.963Z,81.66
2018-03-31T07:49:11.499Z,81.54
2018-03-31T07:51:39.001Z,81.28
2018-03-31T07:54:06.525Z,81.61
2018-03-31T07:56:34.031Z,81.50
2018-03-31T07:59:01.562Z,81.46
2018-03-31T08:01:29.066Z,81.77
2018-03-31T08:03:57.718Z,82.08
2018-03-31T08:06:26.139Z,82.06
2018-03-31T08:08:53.662Z,82.19
2018-03-31T08:11:21.174Z,82.19
2018-03-31T08:13:48.707Z,82.22
2018-03-31T08:16:17.126Z,82.27
2018-03-31T08:18:44.788Z,82.40
2018-03-31T08:21:12.286Z,82.23
2018-03-31T08:23:39.819Z,82.24
2018-03-31T08:26:07.324Z,82.56
2018-03-31T08:28:34.840Z,82.45
2018-03-31T08:31:02.948Z,82.69
2018-03-31T08:33:30.453Z,82.86
2018-03-31T08:35:57.977Z,82.88
2018-03-31T08:38:25.477Z,82.76
2018-03-31T08:40:53.014Z,82.44
2018-03-31T08:43:20.517Z,81.96
2018-03-31T08:45:48.038Z,81.86
2018-03-31T08:48:15.546Z,82.08
2018-03-31T08:50:43.075Z,82.27
2018-03-31T08:53:10.591Z,81.92
2018-03-31T08:55:38.106Z,81.94
2018-03-31T08:58:05.613Z,81.94
2018-03-31T09:00:33.138Z,81.80
2018-03-31T09:03:01.123Z,81.77
2018-03-31T09:05:28.646Z,81.66
2018-03-31T09:07:56.156Z,81.43
2018-03-31T09:10:23.677Z,81.53
2018-03-31T09:12:51.186Z,81.45
2018-03-31T09:15:18.714Z,81.60
2018-03-31T09:17:46.222Z,81.12
2018-03-31T09:20:13.750Z,81.01
2018-03-31T09:22:45.781Z,81.17
2018-03-31T09:25:08.790Z,81.75
2018-03-31T09:27:36.441Z,81.83
2018-03-31T09:30:03.987Z,81.86
2018-03-31T09:32:31.496Z,81.83
2018-03-31T09:34:59.687Z,81.76
2018-03-31T09:37:27.189Z,81.34
2018-03-31T09:39:54.732Z,81.58
2018-03-31T09:42:22.247Z,81.46
2018-03-31T09:44:49.774Z,81.42
2018-03-31T09:47:17.281Z,81.47
2018-03-31T09:49:44.814Z,81.61
2018-03-31T09:52:12.329Z,81.10
2018-03-31T09:54:39.870Z,81.45
2018-03-31T09:57:07.395Z,81.64
2018-03-31T09:59:34.930Z,81.41
2018-03-31T10:02:02.454Z,81.52
2018-03-31T10:04:29.969Z,80.90
2018-03-31T10:06:58.407Z,81.24
2018-03-31T10:09:25.914Z,80.69
2018-03-31T10:11:53.452Z,81.10
2018-03-31T10:14:20.963Z,80.61
2018-03-31T10:16:49.463Z,80.58
2018-03-31T10:19:16.975Z,80.90
2018-03-31T10:21:44.578Z,80.53
2018-03-31T10:24:12.278Z,80.32
2018-03-31T10:26:39.842Z,80.63
2018-03-31T10:29:07.349Z,80.38
2018-03-31T10:31:34.877Z,80.57
2018-03-31T10:34:02.457Z,80.39
2018-03-31T10:36:30.012Z,80.00
2018-03-31T10:38:57.534Z,79.42
2018-03-31T10:41:25.214Z,79.43
2018-03-31T10:43:52.971Z,79.34
2018-03-31T10:46:20.658Z,79.57
2018-03-31T10:48:48.327Z,79.34
2018-03-31T10:51:15.833Z,79.66
2018-03-31T10:53:43.343Z,79.67
2018-03-31T10:56:11.082Z,80.05
2018-03-31T10:58:38.993Z,79.96
2018-03-31T11:01:06.527Z,80.62
2018-03-31T11:03:34.038Z,80.01
2018-03-31T11:06:01.738Z,79.45
2018-03-31T11:08:29.246Z,79.84
2018-03-31T11:10:56.775Z,80.26
2018-03-31T11:13:24.286Z,79.87
2018-03-31T11:15:51.828Z,80.13
2018-03-31T11:18:19.331Z,80.03
2018-03-31T11:20:46.882Z,79.92
2018-03-31T11:23:14.413Z,79.65
2018-03-31T11:25:41.993Z,80.04
2018-03-31T11:28:09.567Z,79.86
2018-03-31T11:30:37.093Z,79.82
2018-03-31T11:33:04.598Z,79.97
2018-03-31T11:35:32.111Z,80.21
2018-03-31T11:37:59.651Z,79.86
2018-03-31T11:40:27.165Z,79.72
2018-03-31T11:42:54.732Z,79.30
2018-03-31T11:45:22.222Z,79.31
2018-03-31T11:47:49.745Z,79.22
2018-03-31T11:50:17.246Z,78.93
2018-03-31T11:52:44.908Z,79.21
2018-03-31T11:55:12.451Z,79.87
2018-03-31T11:57:39.981Z,80.25
2018-03-31T12:00:07.491Z,79.95
2018-03-31T12:02:35.022Z,79.41
2018-03-31T12:05:02.539Z,79.51
2018-03-31T12:07:30.059Z,79.90
2018-03-31T12:09:57.567Z,80.11
2018-03-31T12:12:25.102Z,80.34
2018-03-31T12:14:52.611Z,79.89
2018-03-31T12:17:20.144Z,79.98
2018-03-31T12:19:47.669Z,80.49
2018-03-31T12:22:15.239Z,80.68
2018-03-31T12:24:42.849Z,80.30
2018-03-31T12:27:10.532Z,79.78
2018-03-31T12:29:37.990Z,79.68
2018-03-31T12:32:05.513Z,79.64
2018-03-31T12:34:33.053Z,79.59
2018-03-31T12:37:00.582Z,79.86
2018-03-31T12:39:28.091Z,80.20
2018-03-31T12:41:55.626Z,79.91
2018-03-31T12:44:23.151Z,79.37
2018-03-31T12:46:51.656Z,79.57
2018-03-31T12:49:19.167Z,79.84
2018-03-31T12:51:46.728Z,79.18
2018-03-31T12:54:14.197Z,76.87
2018-03-31T12:56:41.729Z,78.12
2018-03-31T12:59:09.237Z,78.86
2018-03-31T13:01:36.762Z,80.53
2018-03-31T13:04:04.271Z,79.71
2018-03-31T13:06:31.929Z,78.98
2018-03-31T13:08:59.553Z,76.82
2018-03-31T13:11:27.282Z,77.78
2018-03-31T13:13:54.819Z,78.37
2018-03-31T13:16:22.337Z,78.37
2018-03-31T13:18:49.853Z,78.69
2018-03-31T13:21:18.329Z,79.13
2018-03-31T13:23:45.859Z,78.70
2018-03-31T13:26:13.367Z,79.40
2018-03-31T13:28:40.903Z,79.59
2018-03-31T13:31:08.419Z,79.54
2018-03-31T13:33:35.954Z,78.56
2018-03-31T13:36:03.502Z,78.06
2018-03-31T13:38:31.035Z,78.02
2018-03-31T13:40:58.551Z,78.38
2018-03-31T13:43:26.075Z,78.44
2018-03-31T13:45:53.595Z,78.67
2018-03-31T13:48:21.127Z,78.49
2018-03-31T13:50:48.654Z,78.42
2018-03-31T13:53:16.208Z,78.94
2018-03-31T13:55:43.702Z,79.20
2018-03-31T13:58:11.230Z,78.30
2018-03-31T14:00:38.758Z,78.98
2018-03-31T14:03:06.498Z,78.44
2018-03-31T14:05:34.196Z,78.75
2018-03-31T14:08:01.919Z,78.89
2018-03-31T14:10:29.608Z,79.28
2018-03-31T14:12:57.511Z,79.55
2018-03-31T14:15:26.094Z,79.47
2018-03-31T14:17:53.788Z,79.40
2018-03-31T14:20:21.512Z,78.97
2018-03-31T14:22:49.217Z,78.83
2018-03-31T14:25:16.754Z,79.06
2018-03-31T14:27:44.283Z,78.93
2018-03-31T14:30:11.790Z,78.83
2018-03-31T14:32:39.354Z,77.85
2018-03-31T14:35:06.886Z,78.60
2018-03-31T14:37:34.415Z,78.93
2018-03-31T14:40:01.933Z,78.92
2018-03-31T14:42:30.032Z,78.42
2018-03-31T14:44:57.534Z,77.96
2018-03-31T14:47:25.078Z,77.18
2018-03-31T14:49:52.583Z,77.70
2018-03-31T14:52:20.131Z,77.06
2018-03-31T14:54:47.667Z,77.35
2018-03-31T14:57:15.159Z,77.70
2018-03-31T14:59:42.687Z,78.01
2018-03-31T15:02:10.191Z,77.86
2018-03-31T15:04:37.717Z,78.16
2018-03-31T15:07:05.218Z,78.18
2018-03-31T15:09:32.757Z,77.88
2018-03-31T15:12:00.266Z,78.22
2018-03-31T15:14:27.794Z,78.58
2018-03-31T15:16:55.306Z,78.80
2018-03-31T15:19:22.838Z,78.27
2018-03-31T15:21:51.200Z,78.33
2018-03-31T15:24:18.730Z,78.75
2018-03-31T15:26:46.230Z,79.24
2018-03-31T15:29:13.758Z,79.26
2018-03-31T15:31:41.261Z,79.08
2018-03-31T15:34:08.803Z,79.28
2018-03-31T15:36:36.320Z,79.03
2018-03-31T15:39:03.842Z,78.86
2018-03-31T15:41:31.357Z,79.01
2018-03-31T15:43:58.906Z,79.28
2018-03-31T15:46:27.230Z,79.72
2018-03-31T15:48:54.754Z,79.90
2018-03-31T15:51:22.276Z,80.02
2018-03-31T15:53:49.797Z,80.23
2018-03-31T15:56:17.306Z,80.03
2018-03-31T15:58:44.858Z,80.25
2018-03-31T16:01:12.388Z,80.57
2018-03-31T16:03:39.921Z,80.31
2018-03-31T16:06:07.427Z,80.20
2018-03-31T16:08:34.954Z,80.53
2018-03-31T16:11:02.458Z,80.45
2018-03-31T16:13:29.985Z,80.43
2018-03-31T16:15:57.495Z,80.77
2018-03-31T16:18:25.643Z,80.55
2018-03-31T16:20:53.146Z,80.51
2018-03-31T16:23:20.834Z,80.72
2018-03-31T16:25:48.338Z,80.72
2018-03-31T16:28:15.844Z,80.33
2018-03-31T16:30:43.378Z,80.82
2018-03-31T16:33:10.886Z,80.67
2018-03-31T16:35:38.414Z,80.08
2018-03-31T16:38:05.925Z,80.15
2018-03-31T16:40:33.463Z,80.21
2018-03-31T16:43:00.958Z,80.25
2018-03-31T16:45:28.486Z,80.60
2018-03-31T16:47:55.986Z,80.53
2018-03-31T16:50:23.518Z,80.63
2018-03-31T16:52:51.037Z,80.62
2018-03-31T16:55:18.558Z,80.21
2018-03-31T16:57:46.066Z,79.76
2018-03-31T17:00:13.600Z,80.01
2018-03-31T17:02:41.106Z,79.78
2018-03-31T17:05:08.634Z,80.04
2018-03-31T17:07:36.138Z,80.76
2018-03-31T17:10:03.665Z,80.65
2018-03-31T17:12:31.184Z,80.93
2018-03-31T17:14:58.707Z,80.29
2018-03-31T17:17:26.215Z,79.71
2018-03-31T17:19:56.605Z,79.17
2018-03-31T17:22:24.618Z,78.20
2018-03-31T17:24:52.149Z,78.74
2018-03-31T17:27:20.023Z,78.94
2018-03-31T17:29:47.529Z,79.05
2018-03-31T17:32:15.030Z,79.57
2018-03-31T17:34:42.554Z,79.46
2018-03-31T17:37:10.062Z,79.31
2018-03-31T17:39:37.594Z,78.74
2018-03-31T17:42:05.098Z,79.11
2018-03-31T17:44:32.631Z,78.61
2018-03-31T17:47:00.130Z,78.88
2018-03-31T17:49:27.659Z,79.29
2018-03-31T17:51:55.157Z,79.08
2018-03-31T17:54:22.683Z,77.71
2018-03-31T17:56:50.190Z,78.11
2018-03-31T17:59:17.717Z,78.69
2018-03-31T18:01:45.228Z,78.26
2018-03-31T18:04:12.734Z,77.29
2018-03-31T18:06:41.258Z,77.82
2018-03-31T18:09:08.765Z,78.21
2018-03-31T18:11:36.289Z,78.44
2018-03-31T18:14:03.793Z,78.51
2018-03-31T18:16:31.331Z,78.72
2018-03-31T18:18:58.851Z,78.60
2018-03-31T18:21:26.374Z,78.00
2018-03-31T18:23:53.889Z,78.14
2018-03-31T18:26:21.414Z,78.08
2018-03-31T18:28:48.918Z,77.81
2018-03-31T18:31:16.446Z,77.93
2018-03-31T18:33:43.949Z,77.41
2018-03-31T18:36:11.474Z,77.02
2018-03-31T18:38:38.981Z,77.27
2018-03-31T18:41:06.506Z,77.50
2018-03-31T18:43:34.018Z,77.25
2018-03-31T18:46:01.546Z,78.08
2018-03-31T18:48:29.056Z,78.27
2018-03-31T18:50:56.586Z,78.12
2018-03-31T18:53:24.094Z,78.00
2018-03-31T18:55:51.632Z,78.26
2018-03-31T18:58:19.138Z,78.27
2018-03-31T19:00:46.662Z,78.13
2018-03-31T19:03:14.166Z,77.58
2018-03-31T19:05:41.694Z,77.28
2018-03-31T19:08:09.206Z,77.32
2018-03-31T19:10:36.730Z,78.00
2018-03-31T19:13:04.238Z,77.73
2018-03-31T19:15:31.765Z,77.87
2018-03-31T19:17:59.271Z,77.88
2018-03-31T19:20:26.801Z,78.02
2018-03-31T19:22:54.301Z,77.73
2018-03-31T19:25:27.462Z,78.25
2018-03-31T19:27:54.969Z,78.39
2018-03-31T19:30:22.492Z,78.26
2018-03-31T19:32:49.993Z,78.14
2018-03-31T19:35:18.550Z,77.16
2018-03-31T19:37:46.058Z,77.37
2018-03-31T19:40:13.614Z,77.32
2018-03-31T19:42:41.118Z,77.23
2018-03-31T19:45:08.651Z,77.23
2018-03-31T19:47:36.183Z,77.11
2018-03-31T19:50:03.762Z,77.48
2018-03-31T19:52:31.235Z,77.94
2018-03-31T19:54:58.742Z,77.91
2018-03-31T19:57:26.275Z,78.03
2018-03-31T19:59:53.777Z,77.93
2018-03-31T20:02:21.308Z,77.96
2018-03-31T20:04:48.819Z,77.48
2018-03-31T20:07:16.355Z,77.49
2018-03-31T20:09:43.866Z,77.61
2018-03-31T20:12:11.405Z,77.62
2018-03-31T20:14:38.930Z,78.23
2018-03-31T20:17:06.458Z,78.34
2018-03-31T20:19:33.970Z,75.47
2018-03-31T20:22:01.499Z,75.04
2018-03-31T20:24:28.997Z,75.31
2018-03-31T20:26:56.522Z,75.74
2018-03-31T20:29:24.034Z,76.16
2018-03-31T20:31:51.569Z,76.68
2018-03-31T20:34:19.082Z,76.81
2018-03-31T20:36:46.604Z,76.71
2018-03-31T20:39:14.834Z,76.46
2018-03-31T20:41:42.368Z,76.87
2018-03-31T20:44:09.880Z,76.99
2018-03-31T20:46:37.406Z,76.88
2018-03-31T20:49:04.917Z,76.64
2018-03-31T20:51:32.443Z,76.24
2018-03-31T20:53:59.956Z,75.70
2018-03-31T20:56:27.521Z,76.20
2018-03-31T20:58:54.990Z,75.82
2018-03-31T21:01:22.525Z,75.93
2018-03-31T21:03:50.037Z,76.15
2018-03-31T21:06:18.471Z,76.57
2018-03-31T21:08:45.979Z,76.54
2018-03-31T21:11:13.506Z,76.65
2018-03-31T21:13:41.014Z,76.80
2018-03-31T21:16:08.550Z,76.93
2018-03-31T21:18:36.109Z,76.86
2018-03-31T21:21:03.605Z,76.84
2018-03-31T21:23:31.133Z,77.27
2018-03-31T21:25:58.643Z,77.17
2018-03-31T21:28:27.234Z,77.12
2018-03-31T21:30:54.743Z,76.55
2018-03-31T21:33:22.273Z,76.48
2018-03-31T21:35:49.783Z,76.62
2018-03-31T21:38:17.311Z,76.20
2018-03-31T21:40:44.816Z,76.02
2018-03-31T21:43:12.343Z,75.30
2018-03-31T21:45:39.873Z,74.63
2018-03-31T21:48:07.402Z,74.55
2018-03-31T21:50:34.941Z,74.67
2018-03-31T21:53:02.486Z,74.62
2018-03-31T21:55:30.028Z,75.09
2018-03-31T21:57:57.528Z,75.29
2018-03-31T22:00:25.030Z,74.93
2018-03-31T22:02:52.559Z,74.59
2018-03-31T22:05:20.067Z,74.70
2018-03-31T22:07:47.591Z,75.07
2018-03-31T22:10:15.090Z,75.20
2018-03-31T22:12:43.605Z,75.70
2018-03-31T22:15:16.650Z,75.99
2018-03-31T22:17:44.170Z,75.55
2018-03-31T22:20:11.678Z,75.59
2018-03-31T22:22:39.206Z,75.56
2018-03-31T22:25:06.709Z,75.57
2018-03-31T22:27:34.235Z,74.82
2018-03-31T22:30:01.785Z,74.47
2018-03-31T22:32:29.308Z,74.82
2018-03-31T22:34:57.028Z,75.43
2018-03-31T22:37:24.558Z,74.77
2018-03-31T22:39:52.069Z,74.29
2018-03-31T22:42:19.589Z,74.62
2018-03-31T22:44:47.106Z,74.63
2018-03-31T22:47:14.639Z,74.51
2018-03-31T22:49:42.142Z,74.53
2018-03-31T22:52:09.665Z,74.75
2018-03-31T22:54:37.166Z,75.20
2018-03-31T22:57:04.705Z,75.39
2018-03-31T22:59:32.209Z,75.55
2018-03-31T23:01:59.713Z,75.08
2018-03-31T23:04:27.530Z,75.36
2018-03-31T23:06:55.314Z,75.71
2018-03-31T23:09:23.134Z,75.74
2018-03-31T23:11:50.922Z,76.02
2018-03-31T23:14:18.741Z,75.82
2018-03-31T23:16:46.521Z,75.51
2018-03-31T23:19:14.326Z,76.01
2018-03-31T23:21:42.106Z,76.45
2018-03-31T23:24:09.905Z,76.48
2018-03-31T23:26:37.682Z,76.62
2018-03-31T23:29:05.490Z,76.26
2018-03-31T23:31:33.265Z,76.09
2018-03-31T23:34:01.066Z,76.04
2018-03-31T23:36:28.849Z,75.38
2018-03-31T23:38:56.370Z,75.50
2018-03-31T23:41:23.874Z,75.63
2018-03-31T23:43:51.397Z,75.50
2018-03-31T23:46:18.902Z,75.96
2018-03-31T23:48:46.426Z,75.79
2018-03-31T23:51:13.934Z,75.75
2018-03-31T23:53:41.448Z,75.90
2018-03-31T23:56:08.962Z,76.07
2018-03-31T23:58:36.486Z,75.87
